Terminal Aerodrome Forecast
Issued by NWS New Orleans/Baton Rouge, LA

Home | Current Version | Previous Version | Text Only | Print | Product List | Glossary On
Versions: 1 2 3 4 5 6 7 8 9 10 11 12 13 14 15 16 17 18 19 20 21 22 23 24 25 26 27 28 29 30 31 32 33 34 35 36 37 38 39 40
000
FTUS44 KLIX 210456 AAB
TAFNEW
TAF AMD
KNEW 210456Z 2105/2124 15007KT 2SM BR OVC004
      TEMPO 2105/2106 3/4SM BR OVC003
     FM210600 17006KT 5SM -SHRA BKN010
      TEMPO 2107/2111 27035G50KT 1/2SM +TSRA BKN010CB
     FM211800 21015KT P6SM BKN022=

USA.gov is the U.S. government's official web portal to all federal, state and local government web resources and services.